createdAt,value
2019-05-16T00:00:51.408Z,447
2019-05-16T00:02:02.399Z,447
2019-05-16T00:03:09.338Z,447
2019-05-16T00:04:18.802Z,447
2019-05-16T00:05:28.518Z,447
2019-05-16T00:06:35.448Z,447
2019-05-16T00:07:42.666Z,447
2019-05-16T00:08:49.867Z,447
2019-05-16T00:09:59.445Z,447
2019-05-16T00:11:09.079Z,447
2019-05-16T00:12:18.544Z,447
2019-05-16T00:13:27.834Z,447
2019-05-16T00:14:35.172Z,448
2019-05-16T00:15:42.375Z,448
2019-05-16T00:16:49.579Z,448
2019-05-16T00:17:59.228Z,447
2019-05-16T00:19:08.825Z,448
2019-05-16T00:20:15.902Z,447
2019-05-16T00:21:25.698Z,448
2019-05-16T00:22:34.947Z,447
2019-05-16T00:23:41.578Z,447
2019-05-16T00:24:49.774Z,447
2019-05-16T00:25:59.585Z,448
2019-05-16T00:27:09.207Z,448
2019-05-16T00:28:18.947Z,448
2019-05-16T00:29:28.163Z,448
2019-05-16T00:30:35.378Z,448
2019-05-16T00:31:42.578Z,447
2019-05-16T00:32:49.784Z,448
2019-05-16T00:33:58.863Z,448
2019-05-16T00:35:06.069Z,448
2019-05-16T00:36:15.853Z,448
2019-05-16T00:37:25.577Z,448
2019-05-16T00:38:35.346Z,448
2019-05-16T00:39:44.662Z,448
2019-05-16T00:40:51.860Z,448
2019-05-16T00:41:59.446Z,448
2019-05-16T00:43:08.947Z,448
2019-05-16T00:44:16.148Z,448
2019-05-16T00:45:25.635Z,448
2019-05-16T00:46:32.833Z,448
2019-05-16T00:47:40.242Z,448
2019-05-16T00:48:49.618Z,448
2019-05-16T00:49:58.703Z,448
2019-05-16T00:51:08.313Z,449
2019-05-16T00:52:15.519Z,448
2019-05-16T00:53:25.073Z,449
2019-05-16T00:54:31.998Z,449
2019-05-16T00:55:39.904Z,448
2019-05-16T00:56:49.675Z,450
2019-05-16T00:57:59.363Z,449
2019-05-16T00:59:08.845Z,449
2019-05-16T01:00:18.605Z,449
2019-05-16T01:01:28.151Z,449
2019-05-16T01:02:35.430Z,449
2019-05-16T01:03:44.895Z,449
2019-05-16T01:04:51.564Z,449
2019-05-16T01:05:59.272Z,449
2019-05-16T01:07:08.776Z,449
2019-05-16T01:08:18.608Z,449
2019-05-16T01:09:25.686Z,449
2019-05-16T01:10:34.960Z,449
2019-05-16T01:11:41.896Z,450
2019-05-16T01:12:48.622Z,449
2019-05-16T01:13:57.731Z,449
2019-05-16T01:15:07.610Z,449
2019-05-16T01:16:14.882Z,449
2019-05-16T01:17:21.807Z,449
2019-05-16T01:18:29.487Z,448
2019-05-16T01:19:38.940Z,449
2019-05-16T01:20:48.491Z,449
2019-05-16T01:21:55.687Z,449
2019-05-16T01:23:02.888Z,449
2019-05-16T01:24:10.092Z,449
2019-05-16T01:25:19.242Z,449
2019-05-16T01:26:29.036Z,449
2019-05-16T01:27:38.351Z,449
2019-05-16T01:28:45.734Z,450
2019-05-16T01:29:54.768Z,449
2019-05-16T01:31:01.696Z,450
2019-05-16T01:32:09.450Z,449
2019-05-16T01:33:18.920Z,450
2019-05-16T01:34:28.333Z,450
2019-05-16T01:35:35.647Z,449
2019-05-16T01:36:45.229Z,450
2019-05-16T01:37:52.155Z,450
2019-05-16T01:38:59.492Z,450
2019-05-16T01:40:09.066Z,450
2019-05-16T01:41:18.432Z,450
2019-05-16T01:42:27.706Z,451
2019-05-16T01:43:35.020Z,450
2019-05-16T01:44:44.154Z,450
2019-05-16T01:45:51.355Z,450
2019-05-16T01:46:59.649Z,450
2019-05-16T01:48:09.104Z,450
2019-05-16T01:49:15.755Z,450
2019-05-16T01:50:25.443Z,450
2019-05-16T01:51:32.649Z,451
2019-05-16T01:52:39.851Z,450
2019-05-16T01:53:49.236Z,450
2019-05-16T01:54:58.541Z,450
2019-05-16T01:56:05.639Z,450
2019-05-16T01:57:15.289Z,450
2019-05-16T01:58:22.220Z,451
2019-05-16T01:59:29.186Z,450
2019-05-16T02:01:11.292Z,450
2019-05-16T02:02:22.305Z,451
2019-05-16T02:03:29.509Z,451
2019-05-16T02:04:38.875Z,450
2019-05-16T02:05:48.549Z,451
2019-05-16T02:06:58.891Z,451
2019-05-16T02:08:05.834Z,451
2019-05-16T02:09:15.501Z,451
2019-05-16T02:10:25.562Z,451
2019-05-16T02:11:35.168Z,451
2019-05-16T02:12:42.368Z,451
2019-05-16T02:13:49.642Z,451
2019-05-16T02:14:58.564Z,451
2019-05-16T02:16:05.611Z,452
2019-05-16T02:17:15.003Z,451
2019-05-16T02:18:25.031Z,451
2019-05-16T02:19:32.234Z,452
2019-05-16T02:20:40.279Z,452
2019-05-16T02:21:51.213Z,452
2019-05-16T02:22:59.570Z,451
2019-05-16T02:24:09.271Z,452
2019-05-16T02:25:18.968Z,452
2019-05-16T02:26:28.238Z,452
2019-05-16T02:27:38.119Z,452
2019-05-16T02:28:50.508Z,453
2019-05-16T02:29:59.880Z,453
2019-05-16T02:31:07.190Z,452
2019-05-16T02:32:14.397Z,453
2019-05-16T02:33:22.539Z,453
2019-05-16T02:34:31.837Z,453
2019-05-16T02:35:41.601Z,453
2019-05-16T02:37:29.720Z,453
2019-05-16T02:38:43.365Z,453
2019-05-16T02:39:55.340Z,453
2019-05-16T02:41:04.356Z,453
2019-05-16T02:42:13.079Z,452
2019-05-16T02:43:27.274Z,453
2019-05-16T02:44:41.562Z,452
2019-05-16T02:45:52.396Z,452
2019-05-16T02:47:02.652Z,452
2019-05-16T02:48:12.052Z,452
2019-05-16T02:49:22.624Z,453
2019-05-16T02:50:32.795Z,453
2019-05-16T02:51:41.710Z,453
2019-05-16T02:52:52.194Z,452
2019-05-16T02:54:02.287Z,452
2019-05-16T02:55:12.892Z,452
2019-05-16T02:56:22.264Z,452
2019-05-16T02:57:32.512Z,452
2019-05-16T02:58:45.764Z,452
2019-05-16T02:59:52.968Z,452
2019-05-16T03:01:03.137Z,453
2019-05-16T03:02:12.431Z,451
2019-05-16T03:03:22.509Z,452
2019-05-16T03:04:31.647Z,452
2019-05-16T03:05:42.264Z,452
2019-05-16T03:06:52.214Z,452
2019-05-16T03:08:02.204Z,452
2019-05-16T03:09:12.466Z,452
2019-05-16T03:10:21.402Z,451
2019-05-16T03:11:31.838Z,452
2019-05-16T03:12:41.959Z,452
2019-05-16T03:13:52.232Z,452
2019-05-16T03:15:03.454Z,453
2019-05-16T03:16:12.953Z,452
2019-05-16T03:17:22.515Z,453
2019-05-16T03:18:32.031Z,452
2019-05-16T03:19:42.582Z,452
2019-05-16T03:20:51.824Z,452
2019-05-16T03:22:02.053Z,452
2019-05-16T03:23:11.983Z,453
2019-05-16T03:24:21.655Z,452
2019-05-16T03:25:31.948Z,452
2019-05-16T03:26:41.968Z,452
2019-05-16T03:27:51.964Z,452
2019-05-16T03:29:01.855Z,452
2019-05-16T03:30:23.327Z,452
2019-05-16T03:31:35.369Z,452
2019-05-16T03:32:46.719Z,452
2019-05-16T03:34:13.859Z,452
2019-05-16T03:35:26.220Z,452
2019-05-16T03:36:35.656Z,452
2019-05-16T03:38:05.753Z,452
2019-05-16T03:39:13.148Z,451
2019-05-16T03:40:22.457Z,452
2019-05-16T03:41:31.936Z,451
2019-05-16T03:42:42.525Z,452
2019-05-16T03:43:51.790Z,451
2019-05-16T03:45:02.735Z,452
2019-05-16T03:46:12.973Z,451
2019-05-16T03:47:23.035Z,451
2019-05-16T03:48:32.341Z,451
2019-05-16T03:49:42.753Z,451
2019-05-16T03:50:51.780Z,451
2019-05-16T03:52:02.370Z,451
2019-05-16T03:53:12.600Z,451
2019-05-16T03:54:22.284Z,450
2019-05-16T03:55:33.420Z,451
2019-05-16T03:56:41.901Z,451
2019-05-16T03:57:52.506Z,451
2019-05-16T03:59:01.962Z,451
2019-05-16T04:00:12.937Z,451
2019-05-16T04:01:22.145Z,451
2019-05-16T04:02:32.010Z,451
2019-05-16T04:03:42.455Z,451
2019-05-16T04:04:52.137Z,451
2019-05-16T04:06:02.398Z,450
2019-05-16T04:07:12.068Z,450
2019-05-16T04:08:26.364Z,451
2019-05-16T04:09:33.566Z,450
2019-05-16T04:10:41.958Z,451
2019-05-16T04:11:52.037Z,450
2019-05-16T04:13:01.937Z,450
2019-05-16T04:14:11.884Z,450
2019-05-16T04:15:22.363Z,450
2019-05-16T04:16:32.407Z,451
2019-05-16T04:17:42.383Z,450
2019-05-16T04:18:52.267Z,450
2019-05-16T04:20:03.106Z,450
2019-05-16T04:21:12.828Z,450
2019-05-16T04:22:22.542Z,450
2019-05-16T04:23:32.506Z,450
2019-05-16T04:24:42.656Z,450
2019-05-16T04:25:53.673Z,450
2019-05-16T04:27:02.010Z,450
2019-05-16T04:28:12.603Z,450
2019-05-16T04:29:21.839Z,449
2019-05-16T04:30:32.334Z,449
2019-05-16T04:31:42.487Z,449
2019-05-16T04:32:51.850Z,449
2019-05-16T04:34:02.032Z,448
2019-05-16T04:35:12.428Z,449
2019-05-16T04:36:22.303Z,449
2019-05-16T04:37:32.275Z,449
2019-05-16T04:38:47.505Z,449
2019-05-16T04:40:00.877Z,449
2019-05-16T04:41:11.973Z,449
2019-05-16T04:42:22.399Z,449
2019-05-16T04:43:32.694Z,448
2019-05-16T04:44:42.758Z,449
2019-05-16T04:45:53.403Z,449
2019-05-16T04:47:02.310Z,449
2019-05-16T04:48:12.272Z,449
2019-05-16T04:49:22.276Z,449
2019-05-16T04:50:32.038Z,449
2019-05-16T04:51:42.041Z,449
2019-05-16T04:52:52.674Z,448
2019-05-16T04:54:11.047Z,448
2019-05-16T04:55:21.974Z,448
2019-05-16T04:56:31.848Z,448
2019-05-16T04:57:43.178Z,448
2019-05-16T04:58:52.469Z,447
2019-05-16T05:00:03.329Z,447
2019-05-16T05:01:12.236Z,447
2019-05-16T05:02:21.925Z,447
2019-05-16T05:03:32.480Z,447
2019-05-16T05:04:42.462Z,447
2019-05-16T05:05:52.699Z,446
2019-05-16T05:07:01.550Z,446
2019-05-16T05:08:11.735Z,446
2019-05-16T05:09:21.824Z,446
2019-05-16T05:10:31.866Z,446
2019-05-16T05:11:42.273Z,446
2019-05-16T05:12:52.111Z,447
2019-05-16T05:14:01.859Z,447
2019-05-16T05:15:12.356Z,445
2019-05-16T05:16:21.377Z,446
2019-05-16T05:17:31.339Z,446
2019-05-16T05:18:41.420Z,445
2019-05-16T05:19:51.560Z,445
2019-05-16T05:21:01.657Z,444
2019-05-16T05:22:10.885Z,444
2019-05-16T05:23:20.699Z,444
2019-05-16T05:24:30.141Z,444
2019-05-16T05:25:40.172Z,444
2019-05-16T05:26:50.208Z,444
2019-05-16T05:27:57.266Z,443
2019-05-16T05:29:04.473Z,443
2019-05-16T05:30:11.828Z,442
2019-05-16T05:31:26.474Z,441
2019-05-16T05:32:33.678Z,441
2019-05-16T05:33:42.702Z,442
2019-05-16T05:34:51.391Z,441
2019-05-16T05:36:01.447Z,441
2019-05-16T05:37:12.942Z,440
2019-05-16T05:38:22.410Z,444
2019-05-16T05:39:31.326Z,445
2019-05-16T05:40:41.361Z,445
2019-05-16T05:41:50.924Z,445
2019-05-16T05:43:00.749Z,446
2019-05-16T05:44:10.438Z,446
2019-05-16T05:45:19.957Z,446
2019-05-16T05:46:27.290Z,447
2019-05-16T05:47:34.229Z,448
2019-05-16T05:48:42.095Z,448
2019-05-16T05:49:50.910Z,448
2019-05-16T05:51:00.608Z,446
2019-05-16T05:52:12.754Z,445
2019-05-16T05:53:21.833Z,447
2019-05-16T05:54:31.762Z,448
2019-05-16T05:55:41.537Z,447
2019-05-16T05:56:51.032Z,447
2019-05-16T05:58:00.883Z,448
2019-05-16T05:59:11.106Z,444
2019-05-16T06:00:21.478Z,446
2019-05-16T06:01:31.908Z,443
2019-05-16T06:02:41.322Z,430
2019-05-16T06:03:51.016Z,433
2019-05-16T06:05:00.224Z,436
2019-05-16T06:06:07.430Z,438
2019-05-16T06:07:16.919Z,447
2019-05-16T06:08:24.116Z,455
2019-05-16T06:09:34.231Z,458
2019-05-16T06:10:41.578Z,464
2019-05-16T06:11:51.088Z,468
2019-05-16T06:13:00.479Z,472
2019-05-16T06:14:09.986Z,477
2019-05-16T06:15:17.175Z,479
2019-05-16T06:16:26.910Z,480
2019-05-16T06:17:34.107Z,482
2019-05-16T06:18:41.317Z,487
2019-05-16T06:19:50.743Z,490
2019-05-16T06:21:00.247Z,494
2019-05-16T06:22:10.014Z,498
2019-05-16T06:23:17.335Z,504
2019-05-16T06:24:27.258Z,505
2019-05-16T06:25:36.382Z,505
2019-05-16T06:26:43.306Z,499
2019-05-16T06:27:52.181Z,499
2019-05-16T06:29:01.712Z,497
2019-05-16T06:30:11.104Z,494
2019-05-16T06:31:21.754Z,493
2019-05-16T06:32:31.292Z,490
2019-05-16T06:33:40.959Z,494
2019-05-16T06:34:50.555Z,497
2019-05-16T06:36:00.086Z,496
2019-05-16T06:37:09.668Z,495
2019-05-16T06:38:16.709Z,494
2019-05-16T06:39:23.910Z,494
2019-05-16T06:40:31.115Z,494
2019-05-16T06:41:40.695Z,493
2019-05-16T06:42:47.891Z,497
2019-05-16T06:43:59.807Z,498
2019-05-16T06:45:07.131Z,496
2019-05-16T06:46:16.969Z,495
2019-05-16T06:47:24.213Z,493
2019-05-16T06:48:31.657Z,493
2019-05-16T06:49:41.182Z,493
2019-05-16T06:50:51.384Z,494
2019-05-16T06:52:00.695Z,494
2019-05-16T06:53:10.227Z,494
2019-05-16T06:54:17.566Z,494
2019-05-16T06:55:24.766Z,495
2019-05-16T06:56:32.010Z,499
2019-05-16T06:57:41.744Z,499
2019-05-16T06:58:52.755Z,498
2019-05-16T07:00:01.692Z,499
2019-05-16T07:01:11.355Z,498
2019-05-16T07:02:34.786Z,498
2019-05-16T07:03:42.017Z,498
2019-05-16T07:04:51.547Z,499
2019-05-16T07:06:01.421Z,501
2019-05-16T07:07:13.070Z,503
2019-05-16T07:08:21.715Z,501
2019-05-16T07:09:31.017Z,498
2019-05-16T07:10:40.245Z,498
2019-05-16T07:11:47.462Z,497
2019-05-16T07:12:57.184Z,496
2019-05-16T07:14:04.382Z,497
2019-05-16T07:15:13.267Z,498
2019-05-16T07:16:21.629Z,499
2019-05-16T07:17:31.077Z,499
2019-05-16T07:18:41.042Z,497
2019-05-16T07:19:50.878Z,496
2019-05-16T07:20:57.529Z,495
2019-05-16T07:22:07.039Z,492
2019-05-16T07:23:13.973Z,492
2019-05-16T07:24:21.177Z,489
2019-05-16T07:25:30.560Z,491
2019-05-16T07:26:40.337Z,483
2019-05-16T07:27:47.672Z,482
2019-05-16T07:29:00.194Z,487
2019-05-16T07:30:07.493Z,492
2019-05-16T07:31:23.150Z,501
2019-05-16T07:32:31.247Z,506
2019-05-16T07:33:41.096Z,502
2019-05-16T07:34:50.741Z,493
2019-05-16T07:35:59.903Z,494
2019-05-16T07:37:07.569Z,496
2019-05-16T07:38:14.772Z,500
2019-05-16T07:39:21.981Z,505
2019-05-16T07:40:31.780Z,506
2019-05-16T07:41:41.110Z,510
2019-05-16T07:42:48.078Z,509
2019-05-16T07:43:57.660Z,510
2019-05-16T07:45:09.987Z,512
2019-05-16T07:46:21.043Z,510
2019-05-16T07:47:30.798Z,507
2019-05-16T07:48:40.776Z,503
2019-05-16T07:49:49.993Z,498
2019-05-16T07:50:57.078Z,500
2019-05-16T07:52:04.279Z,496
2019-05-16T07:53:11.699Z,496
2019-05-16T07:54:21.165Z,493
2019-05-16T07:55:30.699Z,490
2019-05-16T07:56:40.443Z,490
2019-05-16T07:57:47.849Z,492
2019-05-16T07:58:57.308Z,492
2019-05-16T08:00:04.509Z,492
2019-05-16T08:01:13.720Z,490
2019-05-16T08:02:21.932Z,489
2019-05-16T08:03:31.445Z,489
2019-05-16T08:04:41.036Z,494
2019-05-16T08:05:52.330Z,496
2019-05-16T08:07:05.218Z,494
2019-05-16T08:08:12.916Z,495
2019-05-16T08:09:22.137Z,492
2019-05-16T08:10:47.048Z,490
2019-05-16T08:11:57.475Z,491
2019-05-16T08:13:04.617Z,492
2019-05-16T08:14:11.819Z,493
2019-05-16T08:15:22.203Z,494
2019-05-16T08:16:31.656Z,494
2019-05-16T08:17:45.255Z,492
2019-05-16T08:18:52.186Z,490
2019-05-16T08:22:01.739Z,487
2019-05-16T08:23:11.827Z,483
2019-05-16T08:24:21.519Z,480
2019-05-16T08:25:31.782Z,481
2019-05-16T08:28:42.276Z,478
2019-05-16T08:29:52.216Z,480
2019-05-16T08:33:03.152Z,484
2019-05-16T08:34:13.324Z,483
2019-05-16T08:35:22.117Z,484
2019-05-16T08:36:31.644Z,482
2019-05-16T08:37:51.015Z,481
2019-05-16T22:00:07.314Z,553
2019-05-16T22:01:14.244Z,556
2019-05-16T22:02:21.172Z,557
2019-05-16T22:03:28.397Z,558
2019-05-16T22:04:37.653Z,557
2019-05-16T22:05:47.414Z,558
2019-05-16T22:06:57.082Z,558
2019-05-16T22:08:04.282Z,558
2019-05-16T22:09:14.041Z,559
2019-05-16T22:10:21.248Z,559
2019-05-16T22:11:28.447Z,559
2019-05-16T22:12:38.196Z,560
2019-05-16T22:13:47.457Z,559
2019-05-16T22:14:56.957Z,560
2019-05-16T22:16:08.787Z,559
2019-05-16T22:17:17.926Z,560
2019-05-16T22:18:24.853Z,560
2019-05-16T22:19:32.051Z,561
2019-05-16T22:20:38.982Z,562
2019-05-16T22:21:45.909Z,560
2019-05-16T22:22:53.112Z,561
2019-05-16T22:24:00.315Z,562
2019-05-16T22:25:08.711Z,562
2019-05-16T22:26:17.837Z,563
2019-05-16T22:27:27.411Z,563
2019-05-16T22:28:34.376Z,563
2019-05-16T22:29:44.098Z,564
2019-05-16T22:30:51.297Z,563
2019-05-16T22:31:58.506Z,563
2019-05-16T22:33:10.022Z,563
2019-05-16T22:34:17.923Z,564
2019-05-16T22:35:27.239Z,564
2019-05-16T22:36:34.574Z,564
2019-05-16T22:37:59.611Z,565
2019-05-16T22:39:07.593Z,565
2019-05-16T22:40:17.043Z,564
2019-05-16T22:41:26.438Z,565
2019-05-16T22:42:33.697Z,565
2019-05-16T22:43:40.622Z,566
2019-05-16T22:44:47.680Z,566
2019-05-16T22:45:57.240Z,566
2019-05-16T22:47:07.168Z,567
2019-05-16T22:48:14.365Z,567
2019-05-16T22:49:23.698Z,567
2019-05-16T22:50:30.901Z,567
2019-05-16T22:51:38.109Z,568
2019-05-16T22:52:45.316Z,568
2019-05-16T22:53:52.518Z,567
2019-05-16T22:54:59.716Z,568
2019-05-16T22:56:08.506Z,569
2019-05-16T22:57:18.067Z,570
2019-05-16T22:58:27.091Z,569
2019-05-16T22:59:34.280Z,569
2019-05-16T23:00:42.381Z,570
2019-05-16T23:01:49.589Z,570
2019-05-16T23:02:57.642Z,571
2019-05-16T23:04:06.898Z,571
2019-05-16T23:05:16.652Z,570
2019-05-16T23:06:23.982Z,571
2019-05-16T23:07:33.653Z,572
2019-05-16T23:08:43.376Z,571
2019-05-16T23:09:50.302Z,572
2019-05-16T23:10:57.626Z,572
2019-05-16T23:12:06.924Z,572
2019-05-16T23:13:14.281Z,573
2019-05-16T23:14:23.711Z,574
2019-05-16T23:15:33.063Z,574
2019-05-16T23:16:39.988Z,573
2019-05-16T23:17:47.649Z,573
2019-05-16T23:18:56.969Z,574
2019-05-16T23:20:06.840Z,574
2019-05-16T23:21:14.037Z,574
2019-05-16T23:22:23.738Z,574
2019-05-16T23:23:30.944Z,574
2019-05-16T23:24:38.139Z,575
2019-05-16T23:25:47.162Z,576
2019-05-16T23:26:56.798Z,575
2019-05-16T23:28:04.004Z,575
2019-05-16T23:29:11.425Z,576
2019-05-16T23:30:18.621Z,576
2019-05-16T23:31:28.017Z,576
2019-05-16T23:32:37.462Z,576
2019-05-16T23:33:46.857Z,576
2019-05-16T23:34:54.162Z,577
2019-05-16T23:36:01.098Z,577
2019-05-16T23:37:08.296Z,578
2019-05-16T23:38:20.733Z,578
2019-05-16T23:39:27.933Z,578
2019-05-16T23:40:37.787Z,578
2019-05-16T23:41:47.024Z,579
2019-05-16T23:42:56.810Z,579
2019-05-16T23:44:04.114Z,580
2019-05-16T23:45:11.317Z,579
2019-05-16T23:46:18.516Z,579
2019-05-16T23:47:25.715Z,580
2019-05-16T23:48:32.917Z,580
2019-05-16T23:49:39.848Z,580
2019-05-16T23:50:48.503Z,581
2019-05-16T23:51:57.816Z,582
2019-05-16T23:53:07.743Z,581
2019-05-16T23:54:17.068Z,582
2019-05-16T23:55:24.490Z,582
2019-05-16T23:56:34.514Z,581
2019-05-16T23:57:46.402Z,583
2019-05-16T23:58:53.774Z,583
